createdAt,value
2023-02-23T00:00:34.644Z,95061.69
2023-02-23T00:03:03.423Z,95056.28
2023-02-23T00:05:33.290Z,95059.22
2023-02-23T00:08:02.509Z,95054.66
2023-02-23T00:10:31.269Z,95061.41
2023-02-23T00:12:59.588Z,95060.03
2023-02-23T00:15:27.658Z,95063.00
2023-02-23T00:17:56.304Z,95055.47
2023-02-23T00:20:27.442Z,95060.31
2023-02-23T00:22:56.311Z,95061.13
2023-02-23T00:25:26.319Z,95054.09
2023-02-23T00:27:54.881Z,95059.25
2023-02-23T00:30:22.636Z,95061.69
2023-02-23T00:32:52.512Z,95066.81
2023-02-23T00:35:20.498Z,95067.06
2023-02-23T00:37:49.658Z,95063.81
2023-02-23T00:40:20.654Z,95059.22
2023-02-23T00:42:52.312Z,95062.75
2023-02-23T00:45:20.520Z,95064.06
2023-02-23T00:47:49.070Z,95061.88
2023-02-23T00:50:18.818Z,95065.13
2023-02-23T00:52:46.559Z,95062.97
2023-02-23T00:55:16.178Z,95062.47
2023-02-23T00:57:43.991Z,95065.72
2023-02-23T01:00:20.207Z,95062.19
2023-02-23T01:02:48.870Z,95066.75
2023-02-23T01:05:17.521Z,95063.50
2023-02-23T01:07:47.126Z,95061.34
2023-02-23T01:10:20.247Z,95064.28
2023-02-23T01:12:49.590Z,95061.84
2023-02-23T01:15:21.268Z,95067.50
2023-02-23T01:17:49.251Z,95071.00
2023-02-23T01:20:19.231Z,95073.94
2023-02-23T01:22:49.116Z,95076.13
2023-02-23T01:25:17.547Z,95074.75
2023-02-23T01:27:46.445Z,95069.88
2023-02-23T01:30:16.113Z,95074.47
2023-02-23T01:32:45.176Z,95072.28
2023-02-23T01:35:13.737Z,95067.41
2023-02-23T01:37:43.264Z,95073.59
2023-02-23T01:40:15.652Z,95063.06
2023-02-23T01:42:46.915Z,95062.00
2023-02-23T01:45:27.216Z,95057.94
2023-02-23T01:48:01.676Z,95057.38
2023-02-23T01:50:34.086Z,95054.94
2023-02-23T01:53:02.149Z,95058.97
2023-02-23T01:55:30.629Z,95061.16
2023-02-23T01:58:06.626Z,95055.50
2023-02-23T02:00:36.760Z,95057.91
2023-02-23T02:03:14.012Z,95051.97
2023-02-23T02:05:42.040Z,95056.31
2023-02-23T02:08:11.601Z,95054.16
2023-02-23T02:10:45.787Z,95054.44
2023-02-23T02:13:22.808Z,95049.63
2023-02-23T02:16:28.977Z,95050.72
2023-02-23T02:19:22.120Z,95050.72
2023-02-23T02:22:15.882Z,95041.28
2023-02-23T02:25:23.759Z,95031.28
2023-02-23T02:28:13.276Z,95042.63
2023-02-23T02:31:13.186Z,95038.91
2023-02-23T02:34:11.765Z,95030.81
2023-02-23T02:37:13.483Z,95037.03
2023-02-23T02:39:53.560Z,95044.84
2023-02-23T02:42:29.201Z,95049.16
2023-02-23T02:45:10.805Z,95038.91
2023-02-23T02:47:44.090Z,95039.75
2023-02-23T02:50:18.493Z,95038.97
2023-02-23T02:52:54.163Z,95034.66
2023-02-23T02:55:24.760Z,95044.91
2023-02-23T02:57:56.746Z,95031.41
2023-02-23T03:00:49.025Z,95037.09
2023-02-23T03:03:47.382Z,95036.59
2023-02-23T03:06:33.840Z,95042.78
2023-02-23T03:09:29.895Z,95040.09
2023-02-23T03:12:24.202Z,95029.59
2023-02-23T03:15:22.120Z,95029.59
2023-02-23T03:18:16.184Z,95036.06
2023-02-23T03:21:06.625Z,95030.16
2023-02-23T03:24:03.200Z,95040.13
2023-02-23T03:26:56.002Z,95048.72
2023-02-23T03:29:50.306Z,95048.72
2023-02-23T03:32:44.152Z,95056.47
2023-02-23T03:35:37.477Z,95057.50
2023-02-23T03:38:28.905Z,95062.88
2023-02-23T03:41:15.221Z,95062.09
2023-02-23T03:44:06.287Z,95062.91
2023-02-23T03:46:52.645Z,95064.53
2023-02-23T03:49:39.353Z,95055.09
2023-02-23T03:52:32.510Z,95066.69
2023-02-23T03:55:20.293Z,95064.06
2023-02-23T03:58:10.689Z,95070.25
2023-02-23T04:01:04.030Z,95063.78
2023-02-23T04:03:52.405Z,95069.13
2023-02-23T04:06:38.995Z,95067.22
2023-02-23T04:09:26.325Z,95069.03
2023-02-23T04:12:15.606Z,95069.53
2023-02-23T04:14:48.870Z,95071.91
2023-02-23T04:17:24.244Z,95064.84
2023-02-23T04:19:52.702Z,95058.31
2023-02-23T04:22:20.496Z,95066.88
2023-02-23T04:24:48.506Z,95067.91
2023-02-23T04:27:16.428Z,95075.38
2023-02-23T04:29:46.472Z,95071.84
2023-02-23T04:32:17.360Z,95076.88
2023-02-23T04:34:46.020Z,95073.03
2023-02-23T04:37:14.654Z,95069.22
2023-02-23T04:39:42.917Z,95075.06
2023-02-23T04:42:10.786Z,95075.25
2023-02-23T04:44:38.520Z,95072.44
2023-02-23T04:47:06.290Z,95080.97
2023-02-23T04:49:35.433Z,95078.75
2023-02-23T04:52:03.340Z,95085.16
2023-02-23T04:54:31.010Z,95092.88
2023-02-23T04:56:58.728Z,95097.38
2023-02-23T04:59:26.872Z,95095.44
2023-02-23T05:01:55.739Z,95101.34
2023-02-23T05:04:23.650Z,95101.03
2023-02-23T05:06:53.139Z,95097.53
2023-02-23T05:09:20.992Z,95096.41
2023-02-23T05:11:48.682Z,95096.09
2023-02-23T05:14:16.379Z,95096.84
2023-02-23T05:16:44.133Z,95098.22
2023-02-23T05:19:12.010Z,95100.88
2023-02-23T05:24:10.686Z,95087.13
2023-02-23T05:26:38.544Z,95086.06
2023-02-23T05:29:06.559Z,95088.19
2023-02-23T05:31:34.349Z,95094.38
2023-02-23T05:34:02.155Z,95099.47
2023-02-23T05:36:30.232Z,95100.03
2023-02-23T05:38:57.940Z,95100.31
2023-02-23T05:41:27.033Z,95098.97
2023-02-23T05:43:56.332Z,95100.16
2023-02-23T05:46:26.569Z,95102.81
2023-02-23T05:48:57.533Z,95103.94
2023-02-23T05:51:25.776Z,95100.78
2023-02-23T05:53:53.500Z,95105.06
2023-02-23T05:56:21.559Z,95116.34
2023-02-23T05:58:51.974Z,95115.03
2023-02-23T06:01:21.031Z,95108.91
2023-02-23T06:03:49.532Z,95107.91
2023-02-23T06:06:18.354Z,95108.75
2023-02-23T06:08:46.450Z,95109.06
2023-02-23T06:11:14.378Z,95111.50
2023-02-23T06:13:42.213Z,95120.06
2023-02-23T06:16:11.358Z,95113.69
2023-02-23T06:18:39.204Z,95120.44
2023-02-23T06:21:07.162Z,95124.75
2023-02-23T06:23:34.934Z,95108.22
2023-02-23T06:26:02.822Z,95117.41
2023-02-23T06:28:30.917Z,95120.72
2023-02-23T06:30:58.763Z,95121.41
2023-02-23T06:33:28.183Z,95127.91
2023-02-23T06:35:56.174Z,95131.31
2023-02-23T06:38:23.992Z,95129.59
2023-02-23T06:40:52.203Z,95128.88
2023-02-23T06:43:21.616Z,95134.63
2023-02-23T06:45:50.885Z,95134.66
2023-02-23T06:48:18.582Z,95132.25
2023-02-23T06:50:47.625Z,95126.63
2023-02-23T06:53:15.406Z,95133.09
2023-02-23T06:55:43.073Z,95132.00
2023-02-23T06:58:10.830Z,95136.84
2023-02-23T07:00:42.861Z,95132.53
2023-02-23T07:03:11.203Z,95135.78
2023-02-23T07:05:39.023Z,95131.44
2023-02-23T07:08:08.319Z,95126.06
2023-02-23T07:10:36.065Z,95137.13
2023-02-23T07:13:03.793Z,95137.09
2023-02-23T07:15:31.539Z,95135.75
2023-02-23T07:17:59.222Z,95140.31
2023-02-23T07:20:26.924Z,95137.34
2023-02-23T07:22:54.866Z,95144.38
2023-02-23T07:25:24.043Z,95143.31
2023-02-23T07:27:51.884Z,95136.31
2023-02-23T07:30:19.947Z,95140.63
2023-02-23T07:32:47.803Z,95135.31
2023-02-23T07:35:15.634Z,95139.34
2023-02-23T07:37:43.462Z,95139.88
2023-02-23T07:40:12.606Z,95136.34
2023-02-23T07:42:41.888Z,95138.22
2023-02-23T07:45:10.690Z,95137.91
2023-02-23T07:47:39.424Z,95136.00
2023-02-23T07:50:10.477Z,95134.34
2023-02-23T07:52:39.678Z,95125.91
2023-02-23T07:55:08.763Z,95146.09
2023-02-23T07:57:36.533Z,95135.47
2023-02-23T08:00:06.751Z,95135.91
2023-02-23T08:02:34.730Z,95137.69
2023-02-23T08:05:02.427Z,95131.66
2023-02-23T08:07:32.663Z,95131.88
2023-02-23T08:10:00.553Z,95130.41
2023-02-23T08:12:28.363Z,95131.72
2023-02-23T08:14:56.182Z,95131.66
2023-02-23T08:17:25.292Z,95137.56
2023-02-23T08:19:53.063Z,95132.66
2023-02-23T08:22:21.500Z,95139.94
2023-02-23T08:24:49.221Z,95140.16
2023-02-23T08:27:16.971Z,95133.00
2023-02-23T08:29:44.735Z,95135.41
2023-02-23T08:32:12.714Z,95124.78
2023-02-23T08:34:43.888Z,95125.47
2023-02-23T08:37:12.152Z,95124.53
2023-02-23T08:39:40.318Z,95126.88
2023-02-23T08:42:09.048Z,95121.59
2023-02-23T08:44:36.767Z,95121.78
2023-02-23T08:47:04.675Z,95122.69
2023-02-23T08:49:33.434Z,95125.53
2023-02-23T08:52:02.535Z,95120.00
2023-02-23T08:54:30.571Z,95124.69
2023-02-23T08:56:58.862Z,95124.56
2023-02-23T08:59:27.134Z,95125.00
2023-02-23T09:01:54.923Z,95114.88
2023-02-23T09:04:22.639Z,95122.97
2023-02-23T09:06:50.440Z,95114.66
2023-02-23T09:09:19.642Z,95116.31
2023-02-23T09:11:47.476Z,95127.03
2023-02-23T09:14:15.449Z,95115.69
2023-02-23T09:16:45.075Z,95113.16
2023-02-23T09:19:13.137Z,95119.63
2023-02-23T09:21:41.319Z,95116.78
2023-02-23T09:24:09.030Z,95122.25
2023-02-23T09:26:40.174Z,95127.16
2023-02-23T09:29:08.613Z,95129.69
2023-02-23T09:31:36.459Z,95130.72
2023-02-23T09:34:04.242Z,95129.75
2023-02-23T09:36:32.564Z,95123.03
2023-02-23T09:39:00.323Z,95124.88
2023-02-23T09:42:03.952Z,95127.28
2023-02-23T09:44:44.052Z,95129.22
2023-02-23T09:47:32.638Z,95111.72
2023-02-23T09:50:03.716Z,95126.19
2023-02-23T09:52:40.443Z,95135.25
2023-02-23T09:55:12.131Z,95130.13
2023-02-23T09:57:44.808Z,95128.41
2023-02-23T10:00:22.792Z,95133.03
2023-02-23T10:03:07.363Z,95130.81
2023-02-23T10:05:47.834Z,95124.09
2023-02-23T10:08:42.419Z,95129.59
2023-02-23T10:11:22.453Z,95141.16
2023-02-23T10:14:00.551Z,95130.19
2023-02-23T10:16:39.713Z,95131.88
2023-02-23T10:19:16.019Z,95122.78
2023-02-23T10:21:49.989Z,95129.16
2023-02-23T10:24:25.264Z,95130.16
2023-02-23T10:26:56.322Z,95131.56
2023-02-23T10:29:30.347Z,95126.88
2023-02-23T10:32:01.746Z,95116.78
2023-02-23T10:34:30.172Z,95132.59
2023-02-23T10:37:01.797Z,95123.63
2023-02-23T10:39:31.700Z,95127.03
2023-02-23T10:42:03.137Z,95115.94
2023-02-23T10:44:32.592Z,95125.72
2023-02-23T10:47:03.803Z,95119.16
2023-02-23T10:49:40.755Z,95125.41
2023-02-23T10:52:13.791Z,95122.91
2023-02-23T10:54:47.734Z,95118.41
2023-02-23T10:57:27.875Z,95111.03
2023-02-23T11:00:30.742Z,95116.94
2023-02-23T11:02:59.409Z,95111.25
2023-02-23T11:05:32.374Z,95114.16
2023-02-23T11:08:20.572Z,95103.97
2023-02-23T11:11:01.043Z,95110.63
2023-02-23T11:13:34.531Z,95109.66
2023-02-23T11:16:06.561Z,95104.41
2023-02-23T11:18:34.612Z,95104.38
2023-02-23T11:21:02.771Z,95105.31
2023-02-23T11:23:35.457Z,95096.84
2023-02-23T11:26:05.179Z,95100.53
2023-02-23T11:28:36.707Z,95098.16
2023-02-23T11:31:15.796Z,95091.13
2023-02-23T11:33:44.080Z,95091.91
2023-02-23T11:36:18.583Z,95082.16
2023-02-23T11:38:47.688Z,95082.66
2023-02-23T11:41:21.944Z,95081.41
2023-02-23T11:43:51.549Z,95088.78
2023-02-23T11:46:23.035Z,95072.84
2023-02-23T11:48:55.154Z,95079.44
2023-02-23T11:51:28.795Z,95068.63
2023-02-23T11:53:57.088Z,95065.56
2023-02-23T11:56:27.205Z,95068.91
2023-02-23T11:58:57.699Z,95075.03
2023-02-23T12:01:41.625Z,95065.19
2023-02-23T12:04:10.810Z,95060.34
2023-02-23T12:06:40.723Z,95055.19
2023-02-23T12:09:18.550Z,95046.69
2023-02-23T12:11:52.881Z,95045.03
2023-02-23T12:14:30.408Z,95055.22
2023-02-23T12:17:05.175Z,95046.41
2023-02-23T12:19:39.038Z,95053.00
2023-02-23T12:22:12.373Z,95043.81
2023-02-23T12:24:46.255Z,95034.09
2023-02-23T12:27:22.302Z,95035.34
2023-02-23T12:30:06.274Z,95033.56
2023-02-23T12:32:45.460Z,95034.03
2023-02-23T12:35:20.271Z,95039.78
2023-02-23T12:37:54.497Z,95043.94
2023-02-23T12:40:27.998Z,95034.97
2023-02-23T12:43:01.962Z,95035.50
2023-02-23T12:45:36.806Z,95036.31
2023-02-23T12:48:13.397Z,95027.09
2023-02-23T12:50:48.258Z,95036.63
2023-02-23T12:53:23.472Z,95033.72
2023-02-23T12:56:13.711Z,95026.47
2023-02-23T12:58:49.383Z,95033.09
2023-02-23T13:01:24.621Z,95026.22
2023-02-23T13:04:23.625Z,95024.81
2023-02-23T13:06:58.703Z,95025.63
2023-02-23T13:09:37.822Z,95022.81
2023-02-23T13:12:36.240Z,95022.28
2023-02-23T13:15:19.696Z,95025.13
2023-02-23T13:17:51.826Z,95020.81
2023-02-23T13:20:27.724Z,95026.66
2023-02-23T13:23:00.734Z,95027.28
2023-02-23T13:25:38.559Z,95029.94
2023-02-23T13:28:13.978Z,95020.94
2023-02-23T13:30:47.280Z,95028.03
2023-02-23T13:33:29.730Z,95023.81
2023-02-23T13:36:08.637Z,95030.13
2023-02-23T13:38:47.755Z,95022.31
2023-02-23T13:41:30.795Z,95025.03
2023-02-23T13:44:02.511Z,95020.38
2023-02-23T13:46:41.856Z,95016.25
2023-02-23T13:49:24.781Z,95021.06
2023-02-23T13:51:57.932Z,95015.25
2023-02-23T13:54:29.623Z,95015.81
2023-02-23T13:57:00.009Z,95014.59
2023-02-23T13:59:30.984Z,95014.00
2023-02-23T14:02:03.386Z,95012.31
2023-02-23T14:04:38.207Z,95011.53
2023-02-23T14:07:22.236Z,95012.22
2023-02-23T14:09:55.811Z,95010.19
2023-02-23T14:12:25.912Z,95006.72
2023-02-23T14:14:53.823Z,95003.78
2023-02-23T14:17:55.677Z,95008.38
2023-02-23T14:20:47.090Z,95003.91
2023-02-23T14:23:34.324Z,95011.81
2023-02-23T14:26:16.397Z,95009.19
2023-02-23T14:28:45.870Z,95008.56
2023-02-23T14:31:23.830Z,95007.94
2023-02-23T14:33:58.635Z,94993.81
2023-02-23T14:36:37.850Z,95000.59
2023-02-23T14:39:10.381Z,95000.44
2023-02-23T14:41:44.963Z,94999.03
2023-02-23T14:44:28.383Z,95002.41
2023-02-23T14:47:02.439Z,94997.75
2023-02-23T14:49:35.006Z,94993.25
2023-02-23T14:52:07.943Z,94997.34
2023-02-23T14:54:39.233Z,94999.38
2023-02-23T14:57:17.625Z,95007.66
2023-02-23T14:59:47.197Z,95003.03
2023-02-23T15:02:21.160Z,95002.38
2023-02-23T15:04:48.984Z,95006.59
2023-02-23T15:07:24.078Z,95009.53
2023-02-23T15:09:58.328Z,95006.16
2023-02-23T15:12:30.627Z,95010.41
2023-02-23T15:15:01.276Z,95007.47
2023-02-23T15:17:31.971Z,95005.50
2023-02-23T15:20:15.405Z,95005.31
2023-02-23T15:22:47.857Z,95005.25
2023-02-23T15:25:19.713Z,94997.81
2023-02-23T15:27:48.668Z,95007.38
2023-02-23T15:30:27.717Z,95010.69
2023-02-23T15:33:03.870Z,95006.81
2023-02-23T15:35:37.970Z,95008.81
2023-02-23T15:38:17.931Z,95009.94
2023-02-23T15:40:58.713Z,95002.91
2023-02-23T15:43:29.854Z,95005.81
2023-02-23T15:46:03.501Z,94998.88
2023-02-23T15:48:42.706Z,95007.31
2023-02-23T15:51:23.624Z,95004.41
2023-02-23T15:53:51.730Z,95006.09
2023-02-23T15:56:27.458Z,95009.09
2023-02-23T15:58:59.103Z,95013.50
2023-02-23T16:01:29.119Z,95011.19
2023-02-23T16:04:01.645Z,95005.25
2023-02-23T16:06:34.395Z,94999.00
2023-02-23T16:09:21.632Z,95007.97
2023-02-23T16:11:53.734Z,95008.25
2023-02-23T16:14:23.370Z,95005.91
2023-02-23T16:17:10.067Z,95007.94
2023-02-23T16:19:41.156Z,95007.22
2023-02-23T16:22:21.355Z,95007.59
2023-02-23T16:24:58.107Z,95007.41
2023-02-23T16:27:29.249Z,95009.38
2023-02-23T16:30:00.174Z,95015.38
2023-02-23T16:32:35.864Z,95015.75
2023-02-23T16:35:12.217Z,95016.44
2023-02-23T16:37:54.769Z,95019.00
2023-02-23T16:40:22.677Z,95019.97
2023-02-23T16:42:53.952Z,95022.53
2023-02-23T16:45:22.681Z,95023.22
2023-02-23T16:47:52.535Z,95022.75
2023-02-23T16:50:23.050Z,95028.31
2023-02-23T16:52:52.957Z,95022.75
2023-02-23T16:55:25.771Z,95032.09
2023-02-23T16:57:57.389Z,95028.44
2023-02-23T17:00:28.688Z,95034.78
2023-02-23T17:02:57.344Z,95032.44
2023-02-23T17:05:26.214Z,95038.72
2023-02-23T17:07:55.434Z,95039.41
2023-02-23T17:10:26.120Z,95029.28
2023-02-23T17:12:58.497Z,95043.53
2023-02-23T17:15:30.129Z,95039.66
2023-02-23T17:17:58.041Z,95049.50
2023-02-23T17:20:26.750Z,95042.81
2023-02-23T17:22:55.397Z,95043.47
2023-02-23T17:25:26.505Z,95048.44
2023-02-23T17:27:56.529Z,95041.72
2023-02-23T17:30:24.932Z,95052.06
2023-02-23T17:32:54.625Z,95051.03
2023-02-23T17:35:23.341Z,95057.59
2023-02-23T17:37:51.332Z,95055.22
2023-02-23T17:40:28.746Z,95058.22
2023-02-23T17:42:59.535Z,95061.78
2023-02-23T17:45:27.808Z,95063.72
2023-02-23T17:47:55.808Z,95066.97
2023-02-23T17:50:24.208Z,95060.22
2023-02-23T17:52:52.486Z,95068.31
2023-02-23T17:55:22.214Z,95062.44
2023-02-23T17:57:50.011Z,95063.78
2023-02-23T18:00:21.339Z,95063.28
2023-02-23T18:02:49.306Z,95066.00
2023-02-23T18:05:17.395Z,95065.47
2023-02-23T18:07:48.953Z,95076.22
2023-02-23T18:10:17.505Z,95083.53
2023-02-23T18:12:45.619Z,95082.69
2023-02-23T18:15:13.482Z,95075.94
2023-02-23T18:17:42.596Z,95082.16
2023-02-23T18:20:15.031Z,95078.91
2023-02-23T18:22:43.267Z,95079.16
2023-02-23T18:25:21.021Z,95078.88
2023-02-23T18:27:53.971Z,95081.28
2023-02-23T18:30:22.900Z,95074.78
2023-02-23T18:32:52.734Z,95079.63
2023-02-23T18:35:20.546Z,95078.25
2023-02-23T18:37:49.620Z,95080.09
2023-02-23T18:40:21.486Z,95072.00
2023-02-23T18:42:49.690Z,95067.69
2023-02-23T18:45:18.141Z,95074.66
2023-02-23T18:47:45.890Z,95078.94
2023-02-23T18:50:19.171Z,95078.91
2023-02-23T18:52:48.076Z,95077.53
2023-02-23T18:55:16.450Z,95076.41
2023-02-23T18:57:44.244Z,95074.22
2023-02-23T19:00:14.365Z,95073.59
2023-02-23T19:02:42.442Z,95076.53
2023-02-23T19:05:12.882Z,95081.34
2023-02-23T19:07:42.847Z,95075.44
2023-02-23T19:10:14.716Z,95075.13
2023-02-23T19:12:42.793Z,95075.31
2023-02-23T19:15:12.336Z,95077.47
2023-02-23T19:17:40.083Z,95071.50
2023-02-23T19:20:12.775Z,95079.78
2023-02-23T19:22:42.660Z,95075.22
2023-02-23T19:25:14.552Z,95071.38
2023-02-23T19:27:42.676Z,95065.69
2023-02-23T19:30:12.105Z,95072.88
2023-02-23T19:32:40.610Z,95071.25
2023-02-23T19:35:11.110Z,95073.94
2023-02-23T19:37:40.596Z,95081.38
2023-02-23T19:40:11.807Z,95078.06
2023-02-23T19:42:43.598Z,95086.66
2023-02-23T19:45:11.492Z,95091.97
2023-02-23T19:47:40.329Z,95088.16
2023-02-23T19:50:13.659Z,95087.84
2023-02-23T19:52:41.346Z,95087.59
2023-02-23T19:55:11.344Z,95088.66
2023-02-23T19:57:39.233Z,95091.66
2023-02-23T20:00:12.133Z,95091.09
2023-02-23T20:02:43.543Z,95093.69
2023-02-23T20:05:12.147Z,95084.22
2023-02-23T20:07:39.961Z,95092.47
2023-02-23T20:10:10.301Z,95091.34
2023-02-23T20:12:39.525Z,95093.16
2023-02-23T20:15:08.586Z,95096.91
2023-02-23T20:17:36.458Z,95090.16
2023-02-23T20:20:06.302Z,95092.25
2023-02-23T20:22:36.465Z,95091.19
2023-02-23T20:25:05.917Z,95088.94
2023-02-23T20:27:33.916Z,95091.38
2023-02-23T20:30:03.009Z,95092.91
2023-02-23T20:32:30.857Z,95095.03
2023-02-23T20:35:01.567Z,95090.44
2023-02-23T20:37:29.313Z,95091.00
2023-02-23T20:39:57.057Z,95083.50
2023-02-23T20:42:28.252Z,95082.16
2023-02-23T20:44:56.206Z,95077.31
2023-02-23T20:47:25.428Z,95077.06
2023-02-23T20:49:53.192Z,95073.59
2023-02-23T20:52:20.972Z,95081.38
2023-02-23T20:54:48.735Z,95075.44
2023-02-23T20:57:16.461Z,95073.34
2023-02-23T20:59:44.222Z,95069.59
2023-02-23T21:02:13.977Z,95075.78
2023-02-23T21:04:44.234Z,95071.53
2023-02-23T21:07:13.360Z,95072.41
2023-02-23T21:09:41.636Z,95075.09
2023-02-23T21:12:10.775Z,95074.13
2023-02-23T21:14:38.566Z,95072.00
2023-02-23T21:17:07.415Z,95067.47
2023-02-23T21:19:36.330Z,95058.91
2023-02-23T21:22:05.564Z,95063.47
2023-02-23T21:24:34.719Z,95060.53
2023-02-23T21:27:05.226Z,95063.47
2023-02-23T21:29:33.006Z,95057.53
2023-02-23T21:32:00.802Z,95049.56
2023-02-23T21:34:28.565Z,95060.81
2023-02-23T21:36:59.160Z,95049.59
2023-02-23T21:39:28.460Z,95054.69
2023-02-23T21:41:56.204Z,95048.28
2023-02-23T21:44:23.951Z,95049.88
2023-02-23T21:46:52.004Z,95050.16
2023-02-23T21:49:20.683Z,95051.69
2023-02-23T21:51:48.430Z,95052.44
2023-02-23T21:54:16.467Z,95050.16
2023-02-23T21:56:45.708Z,95051.13
2023-02-23T21:59:13.511Z,95049.78
2023-02-23T22:01:42.858Z,95048.16
2023-02-23T22:04:15.181Z,95042.78
2023-02-23T22:06:44.857Z,95046.53
2023-02-23T22:09:15.472Z,95038.22
2023-02-23T22:11:46.802Z,95041.97
2023-02-23T22:14:16.609Z,95047.09
2023-02-23T22:16:44.690Z,95042.47
2023-02-23T22:19:13.220Z,95045.13
2023-02-23T22:21:42.809Z,95039.13
2023-02-23T22:24:12.953Z,95040.69
2023-02-23T22:26:42.811Z,95033.34
2023-02-23T22:29:11.984Z,95038.13
2023-02-23T22:31:40.626Z,95034.56
2023-02-23T22:34:08.521Z,95032.13
2023-02-23T22:36:36.327Z,95028.59
2023-02-23T22:39:06.902Z,95033.16
2023-02-23T22:41:42.116Z,95035.50
2023-02-23T22:44:13.486Z,95031.69
2023-02-23T22:46:42.022Z,95024.44
2023-02-23T22:49:10.665Z,95026.78
2023-02-23T22:51:39.243Z,95027.28
2023-02-23T22:54:07.411Z,95033.13
2023-02-23T23:01:02.283Z,95024.06
2023-02-23T23:03:31.601Z,95024.31
2023-02-23T23:06:02.515Z,95018.16
2023-02-23T23:08:31.626Z,95021.31
2023-02-23T23:11:09.243Z,95012.81
2023-02-23T23:13:44.483Z,95020.59
2023-02-23T23:16:30.208Z,95003.22
2023-02-23T23:19:02.622Z,95007.03
2023-02-23T23:21:32.732Z,95000.09
2023-02-23T23:24:05.610Z,94990.19
2023-02-23T23:26:34.823Z,94990.19
2023-02-23T23:29:05.558Z,94994.50
2023-02-23T23:31:38.066Z,94988.09
2023-02-23T23:34:09.330Z,94985.16
2023-02-23T23:36:42.681Z,94985.72
2023-02-23T23:39:12.920Z,94982.81
2023-02-23T23:41:42.936Z,94980.44
2023-02-23T23:44:13.072Z,94985.81
2023-02-23T23:46:44.684Z,94982.00
2023-02-23T23:49:15.834Z,94988.53
2023-02-23T23:51:45.624Z,94981.84
2023-02-23T23:54:15.670Z,94980.00
2023-02-23T23:56:44.496Z,94978.69
2023-02-23T23:59:16.360Z,94983.88
